createdAt,value
2019-03-19T00:02:00.991Z,1.83
2019-03-19T00:04:27.752Z,2.07
2019-03-19T00:06:54.396Z,2.17
2019-03-19T00:09:21.072Z,2.40
2019-03-19T00:11:47.713Z,2.20
2019-03-19T00:14:14.544Z,1.90
2019-03-19T00:16:41.221Z,2.40
2019-03-19T00:19:08.022Z,2.60
2019-03-19T00:21:34.785Z,2.03
2019-03-19T00:24:01.601Z,2.60
2019-03-19T00:26:28.316Z,1.43
2019-03-19T00:28:55.118Z,2.30
2019-03-19T00:31:22.299Z,1.70
2019-03-19T00:33:49.021Z,1.70
2019-03-19T00:36:17.524Z,1.90
2019-03-19T00:38:44.380Z,2.10
2019-03-19T00:41:11.083Z,1.97
2019-03-19T00:43:37.738Z,2.27
2019-03-19T00:46:04.406Z,1.97
2019-03-19T00:48:31.036Z,1.47
2019-03-19T00:50:57.713Z,1.70
2019-03-19T00:53:24.371Z,1.83
2019-03-19T00:55:51.135Z,1.73
2019-03-19T00:58:17.801Z,1.80
2019-03-19T01:00:44.494Z,1.80
2019-03-19T01:03:11.192Z,1.40
2019-03-19T01:05:37.898Z,1.70
2019-03-19T01:08:04.533Z,1.70
2019-03-19T01:10:31.187Z,2.03
2019-03-19T01:12:58.001Z,1.80
2019-03-19T01:15:24.670Z,2.10
2019-03-19T01:17:51.362Z,1.40
2019-03-19T01:20:18.015Z,1.50
2019-03-19T01:22:44.731Z,1.70
2019-03-19T01:25:11.447Z,2.03
2019-03-19T01:27:38.118Z,2.10
2019-03-19T01:30:07.817Z,1.60
2019-03-19T01:32:34.531Z,1.57
2019-03-19T01:35:01.344Z,1.37
2019-03-19T01:37:27.982Z,2.20
2019-03-19T01:39:54.773Z,1.57
2019-03-19T01:42:21.456Z,1.57
2019-03-19T01:44:48.234Z,2.17
2019-03-19T01:47:14.860Z,1.80
2019-03-19T01:49:41.549Z,2.47
2019-03-19T01:52:08.294Z,1.80
2019-03-19T01:54:35.091Z,2.20
2019-03-19T01:57:01.722Z,2.03
2019-03-19T01:59:28.356Z,2.07
2019-03-19T02:01:56.021Z,1.90
2019-03-19T02:04:22.837Z,2.03
2019-03-19T02:09:45.150Z,2.10
2019-03-19T02:12:11.904Z,2.20
2019-03-19T02:14:38.649Z,1.80
2019-03-19T02:17:05.321Z,2.00
2019-03-19T02:19:31.964Z,2.90
2019-03-19T02:21:58.740Z,2.73
2019-03-19T02:24:25.406Z,2.10
2019-03-19T02:26:52.092Z,2.20
2019-03-19T02:29:18.742Z,2.50
2019-03-19T02:31:45.413Z,2.73
2019-03-19T02:34:12.058Z,2.03
2019-03-19T02:36:38.705Z,1.50
2019-03-19T02:39:05.990Z,1.93
2019-03-19T02:41:32.629Z,2.63
2019-03-19T02:43:59.319Z,3.30
2019-03-19T02:46:25.937Z,2.33
2019-03-19T02:48:52.620Z,2.10
2019-03-19T02:51:19.258Z,2.20
2019-03-19T02:53:45.922Z,1.83
2019-03-19T02:56:12.571Z,1.93
2019-03-19T02:58:39.201Z,2.20
2019-03-19T03:01:05.979Z,2.13
2019-03-19T03:03:32.622Z,2.37
2019-03-19T03:05:59.390Z,1.97
2019-03-19T03:08:26.019Z,2.50
2019-03-19T03:10:52.727Z,1.93
2019-03-19T03:13:19.361Z,2.40
2019-03-19T03:15:45.997Z,2.53
2019-03-19T03:18:12.676Z,2.13
2019-03-19T03:20:39.349Z,2.20
2019-03-19T03:23:06.066Z,2.47
2019-03-19T03:25:32.728Z,2.30
2019-03-19T03:27:59.411Z,1.90
2019-03-19T03:30:26.055Z,2.40
2019-03-19T03:32:52.737Z,1.47
2019-03-19T03:35:19.376Z,1.33
2019-03-19T03:37:46.138Z,2.40
2019-03-19T03:40:14.084Z,1.40
2019-03-19T03:42:43.066Z,1.80
2019-03-19T03:45:12.109Z,2.60
2019-03-19T03:47:38.741Z,2.40
2019-03-19T03:50:09.001Z,2.60
2019-03-19T03:52:35.645Z,2.33
2019-03-19T03:55:02.521Z,1.97
2019-03-19T03:57:29.144Z,2.43
2019-03-19T03:59:55.833Z,2.30
2019-03-19T04:02:22.487Z,2.57
2019-03-19T04:04:49.147Z,2.20
2019-03-19T04:07:15.792Z,2.63
2019-03-19T04:09:42.461Z,2.17
2019-03-19T04:12:09.147Z,2.13
2019-03-19T04:14:35.807Z,2.40
2019-03-19T04:17:02.464Z,2.30
2019-03-19T04:19:29.150Z,2.60
2019-03-19T04:21:56.047Z,2.53
2019-03-19T04:24:22.733Z,1.90
2019-03-19T04:26:49.387Z,2.47
2019-03-19T04:29:16.040Z,2.30
2019-03-19T04:31:42.697Z,2.23
2019-03-19T04:34:09.358Z,2.90
2019-03-19T04:36:36.011Z,2.50
2019-03-19T04:39:04.952Z,2.13
2019-03-19T04:41:31.631Z,2.40
2019-03-19T04:43:58.268Z,2.53
2019-03-19T04:46:24.950Z,2.87
2019-03-19T04:48:51.602Z,2.80
2019-03-19T04:51:18.260Z,2.83
2019-03-19T04:53:44.909Z,3.37
2019-03-19T04:56:11.582Z,2.80
2019-03-19T04:58:38.246Z,2.63
2019-03-19T05:01:05.259Z,2.67
2019-03-19T05:03:31.889Z,3.03
2019-03-19T05:05:59.623Z,2.43
2019-03-19T05:08:26.496Z,3.00
2019-03-19T05:10:53.177Z,3.00
2019-03-19T05:13:19.886Z,2.80
2019-03-19T05:15:46.525Z,3.47
2019-03-19T05:18:13.188Z,2.87
2019-03-19T05:20:40.123Z,3.07
2019-03-19T05:23:06.898Z,3.00
2019-03-19T05:25:33.703Z,3.40
2019-03-19T05:28:00.365Z,2.97
2019-03-19T05:30:27.070Z,3.10
2019-03-19T05:32:53.666Z,2.83
2019-03-19T05:35:20.365Z,3.30
2019-03-19T05:37:47.020Z,3.23
2019-03-19T05:40:14.288Z,3.23
2019-03-19T05:42:42.782Z,3.97
2019-03-19T05:45:10.835Z,4.20
2019-03-19T05:47:40.308Z,4.27
2019-03-19T05:50:08.996Z,3.80
2019-03-19T05:52:35.658Z,3.67
2019-03-19T05:55:02.599Z,4.00
2019-03-19T05:57:29.273Z,3.33
2019-03-19T05:59:55.929Z,4.27
2019-03-19T06:02:22.615Z,3.37
2019-03-19T06:04:49.319Z,4.10
2019-03-19T06:07:15.968Z,3.87
2019-03-19T06:09:42.630Z,3.53
2019-03-19T06:12:09.358Z,3.53
2019-03-19T06:14:36.021Z,3.80
2019-03-19T06:17:02.712Z,4.60
2019-03-19T06:19:29.363Z,3.63
2019-03-19T06:21:56.855Z,3.33
2019-03-19T06:24:23.645Z,3.23
2019-03-19T06:26:50.268Z,3.60
2019-03-19T06:29:16.954Z,3.80
2019-03-19T06:31:43.585Z,3.20
2019-03-19T06:34:10.272Z,4.43
2019-03-19T06:36:36.898Z,3.70
2019-03-19T06:39:06.073Z,4.00
2019-03-19T06:41:32.697Z,4.60
2019-03-19T06:43:59.395Z,4.30
2019-03-19T06:46:26.041Z,3.70
2019-03-19T06:48:52.711Z,4.30
2019-03-19T06:51:19.382Z,4.00
2019-03-19T06:53:46.050Z,3.90
2019-03-19T06:56:14.783Z,4.27
2019-03-19T06:58:41.158Z,4.10
2019-03-19T07:01:07.823Z,3.83
2019-03-19T07:03:34.470Z,4.67
2019-03-19T07:06:01.149Z,4.00
2019-03-19T07:08:27.781Z,4.40
2019-03-19T07:10:54.501Z,3.77
2019-03-19T07:13:21.230Z,4.33
2019-03-19T07:15:47.925Z,4.60
2019-03-19T07:18:14.649Z,5.00
2019-03-19T07:20:41.343Z,3.80
2019-03-19T07:23:08.027Z,3.67
2019-03-19T07:25:34.688Z,3.90
2019-03-19T07:28:01.376Z,4.20
2019-03-19T07:30:28.021Z,4.07
2019-03-19T07:32:54.695Z,4.50
2019-03-19T07:35:21.318Z,4.07
2019-03-19T07:37:47.995Z,4.30
2019-03-19T07:40:15.432Z,3.57
2019-03-19T07:42:42.102Z,4.10
2019-03-19T07:45:12.345Z,3.53
2019-03-19T07:47:38.992Z,3.80
2019-03-19T07:50:11.597Z,4.03
2019-03-19T07:52:38.337Z,3.57
2019-03-19T07:55:05.024Z,3.03
2019-03-19T07:57:31.668Z,3.90
2019-03-19T07:59:58.386Z,4.20
2019-03-19T08:02:25.039Z,4.10
2019-03-19T08:04:51.689Z,4.23
2019-03-19T08:07:18.317Z,3.77
2019-03-19T08:09:45.004Z,3.77
2019-03-19T08:12:11.670Z,3.37
2019-03-19T08:14:38.367Z,3.67
2019-03-19T08:17:04.988Z,4.40
2019-03-19T08:19:31.630Z,3.47
2019-03-19T08:21:58.337Z,3.90
2019-03-19T08:24:25.000Z,3.87
2019-03-19T08:26:51.687Z,4.10
2019-03-19T08:29:18.473Z,3.80
2019-03-19T08:31:45.239Z,4.40
2019-03-19T08:34:11.875Z,4.23
2019-03-19T08:36:38.536Z,3.37
2019-03-19T08:39:05.582Z,2.60
2019-03-19T08:41:32.267Z,2.37
2019-03-19T08:43:58.899Z,2.33
2019-03-19T08:46:25.699Z,2.10
2019-03-19T08:48:52.318Z,2.20
2019-03-19T08:51:18.954Z,2.37
2019-03-19T08:53:45.644Z,2.37
2019-03-19T08:56:12.336Z,2.13
2019-03-19T08:58:39.061Z,1.73
2019-03-19T09:01:05.698Z,2.30
2019-03-19T09:03:32.487Z,2.17
2019-03-19T09:06:04.685Z,2.00
2019-03-19T09:08:31.348Z,2.43
2019-03-19T09:10:58.026Z,2.00
2019-03-19T09:13:24.731Z,2.20
2019-03-19T09:15:51.401Z,2.10
2019-03-19T09:18:18.031Z,2.10
2019-03-19T09:20:44.739Z,2.10
2019-03-19T09:23:11.484Z,1.73
2019-03-19T09:25:38.238Z,1.90
2019-03-19T09:28:04.860Z,2.30
2019-03-19T09:30:31.629Z,1.67
2019-03-19T09:32:58.245Z,1.97
2019-03-19T09:35:26.303Z,1.73
2019-03-19T09:37:58.442Z,1.47
2019-03-19T09:40:21.716Z,1.90
2019-03-19T09:42:48.347Z,1.70
2019-03-19T09:45:15.712Z,1.80
2019-03-19T09:47:42.341Z,1.57
2019-03-19T09:50:14.797Z,1.93
2019-03-19T09:52:41.444Z,2.10
2019-03-19T09:55:10.339Z,1.67
2019-03-19T09:57:36.960Z,2.20
2019-03-19T10:00:07.190Z,2.03
2019-03-19T10:02:33.853Z,1.90
2019-03-19T10:05:00.539Z,1.80
2019-03-19T10:07:27.158Z,2.00
2019-03-19T10:09:53.782Z,2.10
2019-03-19T10:12:20.496Z,2.10
2019-03-19T10:14:47.161Z,2.57
2019-03-19T10:17:13.815Z,1.73
2019-03-19T10:19:40.478Z,2.10
2019-03-19T10:22:07.195Z,4.13
2019-03-19T10:24:33.847Z,2.20
2019-03-19T10:27:00.581Z,1.20
2019-03-19T10:29:37.571Z,1.73
2019-03-19T10:31:55.707Z,3.73
2019-03-19T10:34:22.352Z,1.80
2019-03-19T10:36:48.985Z,1.27
2019-03-19T10:39:15.661Z,1.37
2019-03-19T10:41:42.296Z,1.37
2019-03-19T10:44:08.990Z,2.43
2019-03-19T10:46:35.605Z,1.40
2019-03-19T10:49:02.295Z,1.90
2019-03-19T10:51:28.918Z,1.30
2019-03-19T10:53:55.605Z,2.33
2019-03-19T10:56:22.230Z,1.00
2019-03-19T10:58:48.919Z,1.30
2019-03-19T11:01:15.552Z,1.33
2019-03-19T11:03:42.235Z,1.67
2019-03-19T11:06:08.861Z,1.50
2019-03-19T11:08:35.541Z,1.67
2019-03-19T11:11:03.582Z,1.80
2019-03-19T11:13:30.392Z,1.83
2019-03-19T11:15:57.078Z,1.93
2019-03-19T11:18:23.816Z,5.00
2019-03-19T11:20:50.488Z,4.37
2019-03-19T11:23:17.180Z,2.40
2019-03-19T11:25:53.940Z,2.10
2019-03-19T11:28:13.881Z,2.37
2019-03-19T11:30:40.663Z,1.27
2019-03-19T11:33:07.402Z,1.70
2019-03-19T11:35:34.087Z,1.43
2019-03-19T11:38:00.753Z,1.67
2019-03-19T11:40:27.546Z,1.93
2019-03-19T11:42:54.171Z,2.17
2019-03-19T11:45:24.574Z,1.33
2019-03-19T11:47:51.220Z,1.77
2019-03-19T11:50:27.906Z,1.37
2019-03-19T11:52:54.620Z,1.43
2019-03-19T11:55:21.457Z,1.40
2019-03-19T11:57:48.333Z,4.03
2019-03-19T12:00:42.854Z,1.37
2019-03-19T12:03:15.171Z,2.30
2019-03-19T12:05:37.965Z,1.63
2019-03-19T12:08:04.959Z,1.97
2019-03-19T12:10:31.612Z,2.80
2019-03-19T12:12:58.288Z,2.40
2019-03-19T12:15:25.082Z,2.40
2019-03-19T12:17:51.745Z,2.90
2019-03-19T12:20:20.621Z,2.13
2019-03-19T12:22:47.005Z,3.40
2019-03-19T12:25:13.636Z,1.40
2019-03-19T12:27:40.309Z,1.60
2019-03-19T12:30:21.736Z,1.70
2019-03-19T12:32:41.403Z,1.63
2019-03-19T12:35:09.234Z,1.43
2019-03-19T12:37:35.992Z,1.63
2019-03-19T12:40:05.981Z,1.50
2019-03-19T12:42:32.717Z,1.43
2019-03-19T12:44:59.416Z,1.17
2019-03-19T12:47:26.240Z,2.07
2019-03-19T12:49:52.873Z,1.70
2019-03-19T12:52:19.521Z,1.37
2019-03-19T12:54:46.305Z,1.80
2019-03-19T12:57:12.928Z,1.20
2019-03-19T12:59:39.704Z,1.40
2019-03-19T13:02:06.341Z,1.53
2019-03-19T13:04:33.155Z,1.50
2019-03-19T13:06:59.883Z,1.30
2019-03-19T13:09:26.705Z,1.73
2019-03-19T13:11:53.347Z,1.50
2019-03-19T13:14:20.049Z,1.60
2019-03-19T13:16:46.783Z,1.03
2019-03-19T13:19:13.557Z,1.40
2019-03-19T13:21:40.284Z,1.07
2019-03-19T13:24:06.922Z,1.57
2019-03-19T13:26:33.607Z,2.00
2019-03-19T13:29:00.239Z,1.90
2019-03-19T13:31:27.929Z,1.17
2019-03-19T13:33:54.614Z,1.40
2019-03-19T13:36:21.299Z,1.40
2019-03-19T13:38:48.070Z,1.40
2019-03-19T13:41:15.014Z,1.80
2019-03-19T13:43:41.736Z,1.43
2019-03-19T13:46:08.242Z,2.10
2019-03-19T13:48:34.908Z,2.07
2019-03-19T13:51:01.553Z,2.07
2019-03-19T13:53:28.218Z,1.83
2019-03-19T13:55:54.855Z,1.80
2019-03-19T13:58:21.565Z,1.63
2019-03-19T14:00:55.628Z,1.60
2019-03-19T14:03:16.920Z,1.77
2019-03-19T14:05:43.881Z,2.10
2019-03-19T14:08:10.778Z,1.53
2019-03-19T14:10:37.582Z,1.33
2019-03-19T14:13:04.513Z,1.83
2019-03-19T14:15:31.197Z,2.30
2019-03-19T14:17:57.863Z,1.60
2019-03-19T14:20:24.544Z,2.00
2019-03-19T14:22:51.337Z,1.67
2019-03-19T14:25:18.020Z,2.13
2019-03-19T14:27:44.750Z,2.33
2019-03-19T14:30:21.316Z,2.50
2019-03-19T14:32:47.973Z,2.93
2019-03-19T14:35:14.882Z,2.40
2019-03-19T14:37:41.784Z,1.57
2019-03-19T14:40:16.981Z,1.87
2019-03-19T14:42:43.735Z,1.67
2019-03-19T14:45:10.605Z,1.80
2019-03-19T14:47:37.306Z,2.53
2019-03-19T14:50:13.044Z,1.40
2019-03-19T14:52:39.773Z,2.00
2019-03-19T14:55:06.730Z,1.47
2019-03-19T14:57:33.539Z,1.33
2019-03-19T15:00:00.332Z,2.20
2019-03-19T15:02:27.139Z,2.10
2019-03-19T15:04:53.792Z,1.17
2019-03-19T15:07:20.472Z,1.60
2019-03-19T15:09:47.114Z,1.60
2019-03-19T15:12:13.779Z,1.37
2019-03-19T15:14:40.468Z,1.50
2019-03-19T15:17:07.316Z,1.40
2019-03-19T15:19:34.073Z,1.67
2019-03-19T15:22:00.752Z,1.50
2019-03-19T15:24:27.545Z,1.20
2019-03-19T15:26:54.240Z,1.57
2019-03-19T15:29:21.018Z,1.30
2019-03-19T15:31:47.851Z,1.23
2019-03-19T15:34:14.547Z,1.30
2019-03-19T15:36:41.183Z,1.50
2019-03-19T15:39:07.874Z,1.43
2019-03-19T15:41:34.514Z,1.80
2019-03-19T15:44:01.309Z,1.70
2019-03-19T15:46:28.007Z,2.33
2019-03-19T15:48:54.673Z,1.77
2019-03-19T15:51:21.329Z,1.83
2019-03-19T15:53:48.105Z,1.40
2019-03-19T15:56:14.848Z,1.30
2019-03-19T15:58:41.573Z,1.40
2019-03-19T16:01:08.248Z,1.97
2019-03-19T16:03:34.945Z,2.00
2019-03-19T16:06:01.618Z,2.43
2019-03-19T16:08:28.356Z,2.10
2019-03-19T16:10:55.174Z,1.60
2019-03-19T16:13:21.901Z,1.60
2019-03-19T16:15:48.911Z,1.83
2019-03-19T16:18:15.610Z,1.50
2019-03-19T16:20:42.310Z,1.90
2019-03-19T16:23:09.317Z,1.80
2019-03-19T16:25:36.142Z,1.87
2019-03-19T16:28:02.940Z,1.50
2019-03-19T16:30:29.548Z,1.90
2019-03-19T16:32:56.229Z,1.70
2019-03-19T16:35:22.965Z,1.70
2019-03-19T16:37:49.633Z,1.70
2019-03-19T16:40:17.530Z,1.70
2019-03-19T16:42:44.418Z,2.73
2019-03-19T16:45:11.185Z,1.67
2019-03-19T16:47:38.020Z,1.63
2019-03-19T16:50:13.464Z,1.50
2019-03-19T16:52:41.088Z,2.20
2019-03-19T16:55:11.409Z,1.90
2019-03-19T16:57:38.197Z,2.03
2019-03-19T17:00:16.357Z,2.53
2019-03-19T17:02:43.134Z,2.43
2019-03-19T17:05:10.927Z,2.07
2019-03-19T17:07:37.611Z,1.87
2019-03-19T17:10:13.825Z,2.10
2019-03-19T17:12:41.995Z,1.70
2019-03-19T17:15:11.601Z,2.13
2019-03-19T17:17:38.318Z,1.93
2019-03-19T17:20:08.359Z,2.97
2019-03-19T17:22:35.005Z,2.90
2019-03-19T17:25:01.692Z,3.67
2019-03-19T17:27:28.315Z,2.80
2019-03-19T17:29:55.099Z,2.63
2019-03-19T17:32:21.742Z,2.40
2019-03-19T17:34:48.525Z,2.60
2019-03-19T17:37:15.274Z,2.60
2019-03-19T17:39:41.975Z,3.00
2019-03-19T17:42:08.784Z,3.00
2019-03-19T17:44:35.508Z,3.33
2019-03-19T17:47:02.192Z,4.00
2019-03-19T17:49:28.944Z,8.43
2019-03-19T17:51:55.615Z,13.10
2019-03-19T17:54:22.341Z,40.03
2019-03-19T17:56:49.270Z,15.60
2019-03-19T17:59:15.933Z,13.23
2019-03-19T18:01:42.993Z,11.70
2019-03-19T18:04:09.768Z,9.00
2019-03-19T18:06:36.430Z,6.80
2019-03-19T18:09:05.581Z,7.70
2019-03-19T18:11:32.250Z,8.47
2019-03-19T18:13:59.051Z,7.23
2019-03-19T18:16:25.846Z,6.67
2019-03-19T18:18:52.576Z,5.90
2019-03-19T18:21:19.225Z,5.70
2019-03-19T18:23:45.940Z,5.33
2019-03-19T18:26:12.741Z,5.40
2019-03-19T18:28:39.431Z,5.27
2019-03-19T18:31:06.124Z,6.07
2019-03-19T18:33:41.593Z,8.77
2019-03-19T18:36:08.281Z,6.33
2019-03-19T18:38:34.952Z,6.53
2019-03-19T18:41:01.619Z,5.53
2019-03-19T18:43:28.269Z,5.73
2019-03-19T18:45:57.074Z,4.40
2019-03-19T18:48:23.383Z,4.97
2019-03-19T18:50:50.037Z,3.73
2019-03-19T18:53:16.799Z,4.67
2019-03-19T18:55:43.433Z,3.93
2019-03-19T18:58:10.161Z,4.20
2019-03-19T19:00:37.410Z,3.80
2019-03-19T19:03:04.056Z,3.47
2019-03-19T19:05:30.753Z,2.93
2019-03-19T19:07:57.424Z,3.97
2019-03-19T19:10:24.109Z,3.73
2019-03-19T19:12:50.963Z,3.60
2019-03-19T19:15:22.144Z,2.90
2019-03-19T19:17:48.926Z,3.00
2019-03-19T19:20:16.331Z,3.27
2019-03-19T19:22:43.083Z,3.40
2019-03-19T19:25:12.771Z,3.97
2019-03-19T19:27:39.423Z,4.87
2019-03-19T19:30:09.728Z,6.63
2019-03-19T19:32:36.471Z,6.60
2019-03-19T19:35:03.206Z,6.43
2019-03-19T19:37:29.881Z,6.97
2019-03-19T19:39:56.546Z,6.70
2019-03-19T19:42:23.226Z,7.20
2019-03-19T19:44:49.890Z,6.50
2019-03-19T19:47:16.660Z,5.93
2019-03-19T19:49:43.283Z,5.80
2019-03-19T19:52:09.949Z,7.27
2019-03-19T19:54:36.593Z,8.63
2019-03-19T19:57:03.369Z,7.33
2019-03-19T19:59:30.029Z,6.65
2019-03-19T20:01:56.732Z,7.23
2019-03-19T20:04:23.522Z,6.40
2019-03-19T20:06:50.370Z,7.60
2019-03-19T20:09:17.062Z,7.37
2019-03-19T20:11:43.710Z,7.40
2019-03-19T20:14:10.420Z,7.07
2019-03-19T20:16:37.109Z,7.53
2019-03-19T20:19:03.940Z,7.00
2019-03-19T20:21:30.701Z,7.90
2019-03-19T20:23:57.384Z,6.93
2019-03-19T20:26:24.001Z,6.93
2019-03-19T20:28:50.689Z,7.73
2019-03-19T20:31:17.451Z,8.97
2019-03-19T20:33:44.101Z,8.53
2019-03-19T20:36:10.853Z,7.40
2019-03-19T20:38:37.525Z,8.10
2019-03-19T20:41:04.253Z,8.40
2019-03-19T20:43:31.058Z,8.13
2019-03-19T20:45:57.701Z,8.00
2019-03-19T20:48:24.486Z,8.40
2019-03-19T20:50:51.280Z,7.87
2019-03-19T20:53:17.941Z,7.70
2019-03-19T20:55:44.716Z,7.50
2019-03-19T20:58:11.361Z,8.17
2019-03-19T21:00:38.025Z,8.10
2019-03-19T21:03:04.757Z,8.43
2019-03-19T21:05:31.429Z,8.10
2019-03-19T21:07:58.177Z,8.63
2019-03-19T21:10:25.077Z,8.60
2019-03-19T21:12:51.827Z,9.30
2019-03-19T21:15:29.528Z,9.03
2019-03-19T21:17:56.332Z,10.03
2019-03-19T21:20:23.027Z,10.10
2019-03-19T21:22:49.654Z,9.03
2019-03-19T21:25:16.450Z,13.33
2019-03-19T21:27:43.212Z,9.57
2019-03-19T21:30:18.186Z,9.17
2019-03-19T21:32:44.878Z,8.30
2019-03-19T21:35:11.524Z,8.90
2019-03-19T21:37:38.243Z,7.90
2019-03-19T21:40:12.372Z,9.20
2019-03-19T21:42:39.197Z,9.50
2019-03-19T21:45:08.859Z,9.07
2019-03-19T21:47:35.542Z,8.90
2019-03-19T21:50:02.632Z,8.70
2019-03-19T21:52:29.328Z,8.90
2019-03-19T21:54:56.021Z,9.47
2019-03-19T21:57:22.692Z,11.93
2019-03-19T21:59:49.381Z,14.60
2019-03-19T22:02:16.024Z,14.80
2019-03-19T22:04:42.681Z,25.73
2019-03-19T22:07:09.326Z,20.70
2019-03-19T22:09:36.017Z,17.97
2019-03-19T22:12:02.957Z,16.73
2019-03-19T22:14:29.807Z,15.50
2019-03-19T22:16:56.619Z,14.70
2019-03-19T22:19:23.277Z,15.10
2019-03-19T22:21:49.920Z,12.50
2019-03-19T22:24:16.696Z,13.97
2019-03-19T22:26:43.316Z,12.33
2019-03-19T22:29:09.953Z,13.27
2019-03-19T22:31:36.618Z,11.27
2019-03-19T22:34:13.480Z,10.00
2019-03-19T22:36:31.840Z,8.40
2019-03-19T22:38:58.630Z,7.47
2019-03-19T22:41:25.335Z,7.00
2019-03-19T22:43:51.974Z,6.00
2019-03-19T22:46:22.063Z,7.10
2019-03-19T22:48:47.101Z,6.63
2019-03-19T22:51:13.775Z,6.10
2019-03-19T22:53:40.413Z,5.80
2019-03-19T22:56:07.032Z,5.60
2019-03-19T22:58:33.696Z,5.90
2019-03-19T23:01:00.592Z,6.00
2019-03-19T23:03:27.259Z,6.83
2019-03-19T23:05:53.909Z,6.20
2019-03-19T23:08:20.533Z,6.13
2019-03-19T23:10:47.210Z,6.77
2019-03-19T23:13:13.876Z,7.03
2019-03-19T23:15:40.633Z,6.53
2019-03-19T23:18:07.300Z,5.97
2019-03-19T23:20:33.926Z,6.20
2019-03-19T23:23:00.753Z,5.90
2019-03-19T23:25:27.418Z,6.00
2019-03-19T23:27:54.115Z,5.60
2019-03-19T23:30:22.442Z,6.00
2019-03-19T23:32:49.179Z,6.17
2019-03-19T23:35:15.900Z,5.83
2019-03-19T23:37:42.633Z,5.10
2019-03-19T23:40:11.062Z,5.00
2019-03-19T23:42:37.728Z,6.00
2019-03-19T23:45:07.620Z,6.00
2019-03-19T23:47:34.280Z,4.97
2019-03-19T23:50:00.942Z,5.43
2019-03-19T23:52:27.588Z,5.47
2019-03-19T23:54:54.296Z,6.00
2019-03-19T23:57:20.925Z,5.60
2019-03-19T23:59:49.516Z,5.00
